createdAt,value
2023-03-25T00:03:51.126Z,7.82
2023-03-25T00:08:54.823Z,6.60
2023-03-25T00:13:58.454Z,6.03
2023-03-25T00:19:03.481Z,6.18
2023-03-25T00:24:07.502Z,6.70
2023-03-25T00:29:11.147Z,6.63
2023-03-25T00:34:16.042Z,8.13
2023-03-25T00:44:22.857Z,7.22
2023-03-25T00:49:28.873Z,7.47
2023-03-25T00:54:34.408Z,7.90
2023-03-25T00:59:38.038Z,7.88
2023-03-25T01:04:45.770Z,7.07
2023-03-25T01:09:49.484Z,6.72
2023-03-25T01:14:52.935Z,8.65
2023-03-25T01:19:58.170Z,9.38
2023-03-25T01:25:02.104Z,8.77
2023-03-25T01:30:07.276Z,8.73
2023-03-25T01:35:12.427Z,8.30
2023-03-25T01:40:20.825Z,8.85
2023-03-25T01:45:27.681Z,7.90
2023-03-25T01:50:33.502Z,6.60
2023-03-25T01:55:40.303Z,6.03
2023-03-25T02:00:45.890Z,6.93
2023-03-25T02:05:57.263Z,6.50
2023-03-25T02:11:00.880Z,6.43
2023-03-25T02:16:21.747Z,6.38
2023-03-25T02:22:26.184Z,5.43
2023-03-25T02:27:46.182Z,5.50
2023-03-25T02:33:22.730Z,5.50
2023-03-25T02:38:40.647Z,5.53
2023-03-25T02:43:51.892Z,4.38
2023-03-25T02:49:00.393Z,5.50
2023-03-25T02:54:09.012Z,5.13
2023-03-25T02:59:15.428Z,4.78
2023-03-25T03:04:18.954Z,4.10
2023-03-25T03:09:32.878Z,5.20
2023-03-25T03:14:57.579Z,4.45
2023-03-25T03:20:06.809Z,4.38
2023-03-25T03:25:23.131Z,4.65
2023-03-25T03:30:32.740Z,4.80
2023-03-25T03:35:39.402Z,5.07
2023-03-25T03:40:49.038Z,4.13
2023-03-25T03:45:58.170Z,4.30
2023-03-25T03:51:07.999Z,4.60
2023-03-25T03:56:19.406Z,6.32
2023-03-25T04:01:30.783Z,5.80
2023-03-25T04:06:41.893Z,6.20
2023-03-25T04:11:51.853Z,6.70
2023-03-25T04:16:56.819Z,6.57
2023-03-25T04:22:00.440Z,7.25
2023-03-25T04:27:05.525Z,6.70
2023-03-25T04:32:12.145Z,6.18
2023-03-25T04:37:16.249Z,6.53
2023-03-25T04:42:21.216Z,5.23
2023-03-25T04:52:29.566Z,5.38
2023-03-25T04:57:34.477Z,4.57
2023-03-25T05:07:41.670Z,4.20
2023-03-25T05:12:46.611Z,3.47
2023-03-25T05:22:53.748Z,4.03
2023-03-25T05:27:58.601Z,3.47
2023-03-25T05:38:05.889Z,3.90
2023-03-25T05:43:10.754Z,3.70
2023-03-25T05:53:17.456Z,3.80
2023-03-25T05:58:22.279Z,3.75
2023-03-25T06:03:26.277Z,4.20
2023-03-25T06:08:31.674Z,3.78
2023-03-25T06:13:38.334Z,4.20
2023-03-25T06:18:41.835Z,4.53
2023-03-25T06:23:45.301Z,4.75
2023-03-25T06:28:50.165Z,5.28
2023-03-25T06:38:58.549Z,5.93
2023-03-25T06:44:03.442Z,5.97
2023-03-25T06:54:10.191Z,6.88
2023-03-25T06:59:15.069Z,7.75
2023-03-25T07:09:23.153Z,9.10
2023-03-25T07:14:28.309Z,8.88
2023-03-25T07:19:50.632Z,8.98
2023-03-25T07:24:54.044Z,9.20
2023-03-25T07:30:04.911Z,9.77
2023-03-25T07:35:09.623Z,10.38
2023-03-25T07:40:13.986Z,9.93
2023-03-25T07:45:19.072Z,10.57
2023-03-25T07:50:26.012Z,10.25
2023-03-25T07:55:29.608Z,10.98
2023-03-25T08:00:34.902Z,10.23
2023-03-25T08:05:38.382Z,12.02
2023-03-25T08:10:44.236Z,11.05
2023-03-25T08:21:28.031Z,11.52
2023-03-25T08:26:32.090Z,11.83
2023-03-25T08:31:38.884Z,12.53
2023-03-25T08:36:42.449Z,12.35
2023-03-25T08:41:46.283Z,12.93
2023-03-25T08:47:27.190Z,13.15
2023-03-25T08:52:49.084Z,12.05
2023-03-25T08:57:52.562Z,12.63
2023-03-25T09:02:59.165Z,12.48
2023-03-25T09:08:04.322Z,10.48
2023-03-25T09:13:07.945Z,12.43
2023-03-25T09:18:12.882Z,11.88
2023-03-25T09:28:37.904Z,13.32
2023-03-25T09:33:42.912Z,10.88
2023-03-25T09:38:46.812Z,11.13
2023-03-25T09:44:02.388Z,11.03
2023-03-25T09:49:11.129Z,11.00
2023-03-25T09:59:47.505Z,11.55
2023-03-25T10:05:21.472Z,13.35
2023-03-25T10:10:30.535Z,11.75
2023-03-25T10:15:41.457Z,12.82
2023-03-25T10:21:01.802Z,12.02
2023-03-25T10:26:28.258Z,11.35
2023-03-25T10:31:37.234Z,11.18
2023-03-25T10:36:49.366Z,11.65
2023-03-25T10:41:57.980Z,11.48
2023-03-25T10:47:06.216Z,12.18
2023-03-25T10:52:11.741Z,12.43
2023-03-25T10:57:21.746Z,12.05
2023-03-25T11:02:28.232Z,11.85
2023-03-25T11:07:36.714Z,11.13
2023-03-25T11:12:43.815Z,12.20
2023-03-25T11:17:49.312Z,10.95
2023-03-25T11:23:16.393Z,11.68
2023-03-25T11:28:40.809Z,12.32
2023-03-25T11:33:46.382Z,12.17
2023-03-25T11:38:58.178Z,11.85
2023-03-25T11:44:02.974Z,12.20
2023-03-25T11:54:34.680Z,10.23
2023-03-25T11:59:41.381Z,10.45
2023-03-25T12:04:58.200Z,9.35
2023-03-25T12:10:07.728Z,10.07
2023-03-25T12:21:25.677Z,9.75
2023-03-25T12:26:54.132Z,10.23
2023-03-25T12:32:12.263Z,9.75
2023-03-25T12:37:28.360Z,10.07
2023-03-25T12:42:42.428Z,9.65
2023-03-25T12:47:50.464Z,11.47
2023-03-25T12:53:00.028Z,12.45
2023-03-25T12:58:32.608Z,10.50
2023-03-25T13:04:14.377Z,10.80
2023-03-25T13:09:25.643Z,11.52
2023-03-25T13:14:34.625Z,12.30
2023-03-25T13:19:42.801Z,12.43
2023-03-25T13:24:52.756Z,11.75
2023-03-25T13:30:06.200Z,12.07
2023-03-25T13:35:16.793Z,12.73
2023-03-25T13:40:27.879Z,10.68
2023-03-25T13:45:41.149Z,11.68
2023-03-25T13:50:44.774Z,12.48
2023-03-25T13:55:55.528Z,13.38
2023-03-25T14:01:18.115Z,13.93
2023-03-25T14:06:45.341Z,14.48
2023-03-25T14:11:54.253Z,13.27
2023-03-25T14:17:01.519Z,13.10
2023-03-25T14:22:27.595Z,13.93
2023-03-25T14:27:34.283Z,13.95
2023-03-25T14:32:40.426Z,14.38
2023-03-25T14:37:44.055Z,14.45
2023-03-25T14:43:00.577Z,15.23
2023-03-25T14:48:26.167Z,14.20
2023-03-25T14:53:48.433Z,14.00
2023-03-25T15:04:29.445Z,14.23
2023-03-25T15:09:33.477Z,13.73
2023-03-25T15:14:38.576Z,13.87
2023-03-25T15:20:29.342Z,14.15
2023-03-25T15:25:54.881Z,12.73
2023-03-25T15:31:11.672Z,13.77
2023-03-25T15:36:35.567Z,13.93
2023-03-25T15:42:16.253Z,13.98
2023-03-25T15:47:39.146Z,13.55
2023-03-25T15:53:04.751Z,12.45
2023-03-25T15:58:23.275Z,13.30
2023-03-25T16:03:30.809Z,14.80
2023-03-25T16:08:38.630Z,14.45
2023-03-25T16:13:43.779Z,13.63
2023-03-25T16:19:06.697Z,14.65
2023-03-25T16:24:34.248Z,13.80
2023-03-25T16:29:41.439Z,14.02
2023-03-25T16:34:44.921Z,13.98
2023-03-25T16:39:53.556Z,13.27
2023-03-25T16:44:58.606Z,12.48
2023-03-25T16:50:04.758Z,13.05
2023-03-25T16:55:30.121Z,12.80
2023-03-25T17:06:02.551Z,12.75
2023-03-25T17:11:09.285Z,12.98
2023-03-25T17:16:32.962Z,12.35
2023-03-25T17:22:13.148Z,13.13
2023-03-25T17:27:36.317Z,13.02
2023-03-25T17:32:45.068Z,13.32
2023-03-25T17:37:50.750Z,13.88
2023-03-25T17:42:54.688Z,13.43
2023-03-25T17:47:59.716Z,14.10
2023-03-25T17:53:03.896Z,13.60
2023-03-25T18:03:48.996Z,14.27
2023-03-25T18:08:53.175Z,14.20
2023-03-25T18:13:56.621Z,14.90
2023-03-25T18:19:01.617Z,16.63
2023-03-25T18:24:05.353Z,16.85
2023-03-25T18:29:12.955Z,17.10
2023-03-25T18:34:18.297Z,16.33
2023-03-25T18:39:24.379Z,16.73
2023-03-25T18:44:30.858Z,19.00
2023-03-25T18:49:35.936Z,17.63
2023-03-25T19:00:14.391Z,18.40
2023-03-25T19:05:19.782Z,17.58
2023-03-25T19:10:25.375Z,18.20
2023-03-25T19:15:47.538Z,17.67
2023-03-25T19:20:52.632Z,18.40
2023-03-25T19:31:19.224Z,18.15
2023-03-25T19:36:25.880Z,18.33
2023-03-25T19:41:29.409Z,18.60
2023-03-25T19:46:51.301Z,18.65
2023-03-25T19:52:14.667Z,18.35
2023-03-25T20:02:39.168Z,17.10
2023-03-25T20:07:45.838Z,17.42
2023-03-25T20:12:50.088Z,17.33
2023-03-25T20:17:55.646Z,16.93
2023-03-25T20:23:17.666Z,17.30
2023-03-25T20:28:21.149Z,16.27
2023-03-25T20:33:27.505Z,16.02
2023-03-25T20:38:32.408Z,16.73
2023-03-25T20:48:56.885Z,14.65
2023-03-25T20:54:01.774Z,14.88
2023-03-25T21:04:09.978Z,18.90
2023-03-25T21:09:15.041Z,22.73
2023-03-25T21:14:19.403Z,23.25
2023-03-25T21:19:22.997Z,22.38
2023-03-25T21:29:48.799Z,20.83
2023-03-25T21:34:52.516Z,20.30
2023-03-25T21:39:58.379Z,20.98
2023-03-25T21:45:02.706Z,20.50
2023-03-25T21:50:27.014Z,20.13
2023-03-25T21:55:50.600Z,21.90
2023-03-25T22:00:58.087Z,20.52
2023-03-25T22:06:04.386Z,19.02
2023-03-25T22:11:11.200Z,19.30
2023-03-25T22:16:16.876Z,20.42
2023-03-25T22:21:22.202Z,18.70
2023-03-25T22:26:28.404Z,13.98
2023-03-25T22:31:39.564Z,16.38
2023-03-25T22:36:49.564Z,14.00
2023-03-25T22:41:57.912Z,15.80
2023-03-25T22:47:21.164Z,16.17
2023-03-25T22:58:04.808Z,14.82
2023-03-25T23:03:11.253Z,15.50
2023-03-25T23:08:14.776Z,14.57
2023-03-25T23:13:19.883Z,15.93
2023-03-25T23:18:42.001Z,15.48
2023-03-25T23:24:04.737Z,12.73
2023-03-25T23:29:12.465Z,14.63
2023-03-25T23:34:17.254Z,14.15
2023-03-25T23:39:23.000Z,14.02
2023-03-25T23:44:27.924Z,13.00
